sensor_id;sensor_type;location;lat;lon;timestamp;P1;durP1;ratioP1;P2;durP2;ratioP2
75814;SDS011;64451;45.574;14.224;2023-03-29T00:01:31;4.57;;;1.65;;
75814;SDS011;64451;45.574;14.224;2023-03-29T00:03:51;6.45;;;2.50;;
75814;SDS011;64451;45.574;14.224;2023-03-29T00:05:59;5.57;;;2.35;;
75814;SDS011;64451;45.574;14.224;2023-03-29T00:08:16;3.95;;;2.00;;
75814;SDS011;64451;45.574;14.224;2023-03-29T00:10:47;13.90;;;2.03;;
75814;SDS011;64451;45.574;14.224;2023-03-29T00:15:44;1.83;;;1.35;;
75814;SDS011;64451;45.574;14.224;2023-03-29T00:20:00;3.60;;;1.63;;
75814;SDS011;64451;45.574;14.224;2023-03-29T00:22:09;4.32;;;1.60;;
75814;SDS011;64451;45.574;14.224;2023-03-29T00:24:27;2.10;;;1.35;;
75814;SDS011;64451;45.574;14.224;2023-03-29T00:26:56;5.10;;;1.83;;
75814;SDS011;64451;45.574;14.224;2023-03-29T00:29:15;3.53;;;1.45;;
75814;SDS011;64451;45.574;14.224;2023-03-29T00:31:22;5.05;;;1.50;;
75814;SDS011;64451;45.574;14.224;2023-03-29T00:36:31;1.17;;;0.90;;
75814;SDS011;64451;45.574;14.224;2023-03-29T00:40:59;1.85;;;1.52;;
75814;SDS011;64451;45.574;14.224;2023-03-29T00:43:08;1.25;;;0.98;;
75814;SDS011;64451;45.574;14.224;2023-03-29T00:47:55;4.03;;;2.00;;
75814;SDS011;64451;45.574;14.224;2023-03-29T00:57:57;5.32;;;1.63;;
75814;SDS011;64451;45.574;14.224;2023-03-29T01:00:15;1.42;;;0.82;;
75814;SDS011;64451;45.574;14.224;2023-03-29T01:02:43;1.63;;;0.68;;
75814;SDS011;64451;45.574;14.224;2023-03-29T01:05:03;0.73;;;0.65;;
75814;SDS011;64451;45.574;14.224;2023-03-29T01:08:08;0.77;;;0.65;;
75814;SDS011;64451;45.574;14.224;2023-03-29T01:10:38;2.10;;;1.17;;
75814;SDS011;64451;45.574;14.224;2023-03-29T01:16:02;1.75;;;0.73;;
75814;SDS011;64451;45.574;14.224;2023-03-29T01:18:31;2.55;;;1.10;;
75814;SDS011;64451;45.574;14.224;2023-03-29T01:28:54;3.78;;;1.17;;
75814;SDS011;64451;45.574;14.224;2023-03-29T01:31:26;2.10;;;1.33;;
75814;SDS011;64451;45.574;14.224;2023-03-29T01:36:59;1.48;;;0.63;;
75814;SDS011;64451;45.574;14.224;2023-03-29T01:39:41;1.05;;;0.60;;
75814;SDS011;64451;45.574;14.224;2023-03-29T01:42:00;1.80;;;0.77;;
75814;SDS011;64451;45.574;14.224;2023-03-29T01:47:47;3.70;;;1.17;;
75814;SDS011;64451;45.574;14.224;2023-03-29T01:50:31;3.78;;;1.60;;
75814;SDS011;64451;45.574;14.224;2023-03-29T01:53:00;5.00;;;1.17;;
75814;SDS011;64451;45.574;14.224;2023-03-29T01:55:30;1.75;;;0.98;;
75814;SDS011;64451;45.574;14.224;2023-03-29T01:57:58;3.08;;;1.13;;
75814;SDS011;64451;45.574;14.224;2023-03-29T02:02:11;2.70;;;1.10;;
75814;SDS011;64451;45.574;14.224;2023-03-29T02:04:31;2.15;;;1.08;;
75814;SDS011;64451;45.574;14.224;2023-03-29T02:06:44;0.65;;;0.60;;
75814;SDS011;64451;45.574;14.224;2023-03-29T02:08:46;4.47;;;1.83;;
75814;SDS011;64451;45.574;14.224;2023-03-29T02:10:47;5.07;;;1.13;;
75814;SDS011;64451;45.574;14.224;2023-03-29T02:12:49;2.35;;;1.27;;
75814;SDS011;64451;45.574;14.224;2023-03-29T02:14:58;3.45;;;1.73;;
75814;SDS011;64451;45.574;14.224;2023-03-29T02:17:24;3.00;;;1.23;;
75814;SDS011;64451;45.574;14.224;2023-03-29T02:19:41;1.17;;;0.98;;
75814;SDS011;64451;45.574;14.224;2023-03-29T02:22:04;11.88;;;4.30;;
75814;SDS011;64451;45.574;14.224;2023-03-29T02:24:11;4.35;;;1.80;;
75814;SDS011;64451;45.574;14.224;2023-03-29T02:26:18;4.32;;;1.25;;
75814;SDS011;64451;45.574;14.224;2023-03-29T02:28:19;2.63;;;0.95;;
75814;SDS011;64451;45.574;14.224;2023-03-29T02:30:25;3.88;;;1.48;;
75814;SDS011;64451;45.574;14.224;2023-03-29T02:35:11;0.85;;;0.77;;
75814;SDS011;64451;45.574;14.224;2023-03-29T02:37:19;1.13;;;0.80;;
75814;SDS011;64451;45.574;14.224;2023-03-29T02:39:23;2.72;;;0.75;;
75814;SDS011;64451;45.574;14.224;2023-03-29T02:41:49;3.42;;;1.13;;
75814;SDS011;64451;45.574;14.224;2023-03-29T02:43:52;3.85;;;1.35;;
75814;SDS011;64451;45.574;14.224;2023-03-29T02:45:55;1.67;;;1.02;;
75814;SDS011;64451;45.574;14.224;2023-03-29T02:47:56;1.90;;;1.10;;
75814;SDS011;64451;45.574;14.224;2023-03-29T02:50:15;1.20;;;0.98;;
75814;SDS011;64451;45.574;14.224;2023-03-29T02:52:30;3.53;;;1.05;;
75814;SDS011;64451;45.574;14.224;2023-03-29T02:54:50;3.47;;;1.08;;
75814;SDS011;64451;45.574;14.224;2023-03-29T02:57:05;1.92;;;1.13;;
75814;SDS011;64451;45.574;14.224;2023-03-29T02:59:05;2.53;;;1.33;;
75814;SDS011;64451;45.574;14.224;2023-03-29T03:01:18;2.55;;;1.05;;
75814;SDS011;64451;45.574;14.224;2023-03-29T03:03:19;2.33;;;1.02;;
75814;SDS011;64451;45.574;14.224;2023-03-29T03:05:19;2.97;;;1.30;;
75814;SDS011;64451;45.574;14.224;2023-03-29T03:07:20;1.95;;;0.95;;
75814;SDS011;64451;45.574;14.224;2023-03-29T03:09:23;4.50;;;1.80;;
75814;SDS011;64451;45.574;14.224;2023-03-29T03:11:24;5.32;;;2.33;;
75814;SDS011;64451;45.574;14.224;2023-03-29T03:13:24;2.95;;;1.13;;
75814;SDS011;64451;45.574;14.224;2023-03-29T03:15:25;3.90;;;2.00;;
75814;SDS011;64451;45.574;14.224;2023-03-29T03:17:29;6.25;;;1.92;;
75814;SDS011;64451;45.574;14.224;2023-03-29T03:19:35;5.50;;;2.95;;
75814;SDS011;64451;45.574;14.224;2023-03-29T03:21:35;3.45;;;1.40;;
75814;SDS011;64451;45.574;14.224;2023-03-29T03:23:39;3.50;;;1.35;;
75814;SDS011;64451;45.574;14.224;2023-03-29T03:25:49;3.22;;;1.67;;
75814;SDS011;64451;45.574;14.224;2023-03-29T03:27:51;1.55;;;0.93;;
75814;SDS011;64451;45.574;14.224;2023-03-29T03:29:58;4.63;;;1.33;;
75814;SDS011;64451;45.574;14.224;2023-03-29T03:32:11;3.70;;;1.38;;
75814;SDS011;64451;45.574;14.224;2023-03-29T03:34:11;1.75;;;1.02;;
75814;SDS011;64451;45.574;14.224;2023-03-29T03:36:12;2.05;;;1.15;;
75814;SDS011;64451;45.574;14.224;2023-03-29T03:38:12;3.28;;;1.40;;
75814;SDS011;64451;45.574;14.224;2023-03-29T03:40:13;1.92;;;1.00;;
75814;SDS011;64451;45.574;14.224;2023-03-29T03:42:13;1.83;;;1.10;;
75814;SDS011;64451;45.574;14.224;2023-03-29T03:44:14;9.82;;;2.08;;
75814;SDS011;64451;45.574;14.224;2023-03-29T03:46:20;2.53;;;1.33;;
75814;SDS011;64451;45.574;14.224;2023-03-29T03:48:21;2.40;;;1.90;;
75814;SDS011;64451;45.574;14.224;2023-03-29T03:50:23;2.53;;;1.52;;
75814;SDS011;64451;45.574;14.224;2023-03-29T03:52:29;2.53;;;1.38;;
75814;SDS011;64451;45.574;14.224;2023-03-29T03:54:30;3.28;;;1.25;;
75814;SDS011;64451;45.574;14.224;2023-03-29T03:56:33;8.18;;;1.00;;
75814;SDS011;64451;45.574;14.224;2023-03-29T03:58:34;3.97;;;2.28;;
75814;SDS011;64451;45.574;14.224;2023-03-29T04:00:41;2.72;;;1.45;;
75814;SDS011;64451;45.574;14.224;2023-03-29T04:02:42;5.50;;;2.17;;
75814;SDS011;64451;45.574;14.224;2023-03-29T04:04:48;2.95;;;1.45;;
75814;SDS011;64451;45.574;14.224;2023-03-29T04:06:48;6.72;;;1.90;;
75814;SDS011;64451;45.574;14.224;2023-03-29T04:08:49;4.72;;;1.88;;
75814;SDS011;64451;45.574;14.224;2023-03-29T04:10:54;9.43;;;1.92;;
75814;SDS011;64451;45.574;14.224;2023-03-29T04:13:05;7.53;;;1.52;;
75814;SDS011;64451;45.574;14.224;2023-03-29T04:15:09;8.55;;;2.55;;
75814;SDS011;64451;45.574;14.224;2023-03-29T04:17:11;8.00;;;1.92;;
75814;SDS011;64451;45.574;14.224;2023-03-29T04:19:12;4.40;;;2.17;;
75814;SDS011;64451;45.574;14.224;2023-03-29T04:21:12;2.85;;;1.33;;
75814;SDS011;64451;45.574;14.224;2023-03-29T04:23:13;1.67;;;1.00;;
75814;SDS011;64451;45.574;14.224;2023-03-29T04:25:23;2.58;;;1.30;;
75814;SDS011;64451;45.574;14.224;2023-03-29T04:27:24;5.93;;;1.77;;
75814;SDS011;64451;45.574;14.224;2023-03-29T04:29:27;1.70;;;1.08;;
75814;SDS011;64451;45.574;14.224;2023-03-29T04:31:27;2.25;;;1.27;;
75814;SDS011;64451;45.574;14.224;2023-03-29T04:33:37;2.40;;;1.27;;
75814;SDS011;64451;45.574;14.224;2023-03-29T04:35:47;3.88;;;1.75;;
75814;SDS011;64451;45.574;14.224;2023-03-29T04:37:50;2.13;;;1.13;;
75814;SDS011;64451;45.574;14.224;2023-03-29T04:39:59;6.18;;;1.80;;
75814;SDS011;64451;45.574;14.224;2023-03-29T04:41:59;5.35;;;1.90;;
75814;SDS011;64451;45.574;14.224;2023-03-29T04:44:11;3.17;;;1.75;;
75814;SDS011;64451;45.574;14.224;2023-03-29T04:46:20;4.78;;;2.25;;
75814;SDS011;64451;45.574;14.224;2023-03-29T04:48:23;4.28;;;1.90;;
75814;SDS011;64451;45.574;14.224;2023-03-29T04:50:50;3.10;;;2.00;;
75814;SDS011;64451;45.574;14.224;2023-03-29T04:55:09;4.55;;;1.73;;
75814;SDS011;64451;45.574;14.224;2023-03-29T04:57:19;3.47;;;1.75;;
75814;SDS011;64451;45.574;14.224;2023-03-29T04:59:22;6.03;;;2.20;;
75814;SDS011;64451;45.574;14.224;2023-03-29T05:01:26;2.80;;;1.77;;
75814;SDS011;64451;45.574;14.224;2023-03-29T05:03:26;6.65;;;2.17;;
75814;SDS011;64451;45.574;14.224;2023-03-29T05:05:27;8.90;;;2.20;;
75814;SDS011;64451;45.574;14.224;2023-03-29T05:07:30;5.55;;;2.22;;
75814;SDS011;64451;45.574;14.224;2023-03-29T05:09:30;8.15;;;2.22;;
75814;SDS011;64451;45.574;14.224;2023-03-29T05:11:36;4.97;;;1.65;;
75814;SDS011;64451;45.574;14.224;2023-03-29T05:13:42;6.32;;;2.90;;
75814;SDS011;64451;45.574;14.224;2023-03-29T05:15:43;5.18;;;2.80;;
75814;SDS011;64451;45.574;14.224;2023-03-29T05:17:46;2.97;;;1.67;;
75814;SDS011;64451;45.574;14.224;2023-03-29T05:19:56;6.57;;;3.10;;
75814;SDS011;64451;45.574;14.224;2023-03-29T05:22:00;7.38;;;2.38;;
75814;SDS011;64451;45.574;14.224;2023-03-29T05:24:09;5.30;;;2.40;;
75814;SDS011;64451;45.574;14.224;2023-03-29T05:26:12;5.65;;;2.58;;
75814;SDS011;64451;45.574;14.224;2023-03-29T05:28:14;3.58;;;1.95;;
75814;SDS011;64451;45.574;14.224;2023-03-29T05:30:21;6.28;;;3.33;;
75814;SDS011;64451;45.574;14.224;2023-03-29T05:32:21;7.75;;;2.85;;
75814;SDS011;64451;45.574;14.224;2023-03-29T05:34:46;5.88;;;2.65;;
75814;SDS011;64451;45.574;14.224;2023-03-29T05:36:52;9.55;;;2.88;;
75814;SDS011;64451;45.574;14.224;2023-03-29T05:38:53;7.65;;;2.50;;
75814;SDS011;64451;45.574;14.224;2023-03-29T05:41:07;6.50;;;2.97;;
75814;SDS011;64451;45.574;14.224;2023-03-29T05:43:10;4.55;;;2.50;;
75814;SDS011;64451;45.574;14.224;2023-03-29T05:45:11;5.22;;;2.72;;
75814;SDS011;64451;45.574;14.224;2023-03-29T05:47:11;5.13;;;2.33;;
75814;SDS011;64451;45.574;14.224;2023-03-29T05:51:56;11.30;;;4.47;;
75814;SDS011;64451;45.574;14.224;2023-03-29T05:53:58;7.45;;;2.53;;
75814;SDS011;64451;45.574;14.224;2023-03-29T05:58:27;11.45;;;5.35;;
75814;SDS011;64451;45.574;14.224;2023-03-29T06:00:30;8.35;;;3.88;;
75814;SDS011;64451;45.574;14.224;2023-03-29T06:02:36;10.48;;;6.20;;
75814;SDS011;64451;45.574;14.224;2023-03-29T06:04:38;8.85;;;4.72;;
75814;SDS011;64451;45.574;14.224;2023-03-29T06:09:07;10.98;;;4.65;;
75814;SDS011;64451;45.574;14.224;2023-03-29T06:11:08;7.57;;;3.50;;
75814;SDS011;64451;45.574;14.224;2023-03-29T06:13:24;5.10;;;2.65;;
75814;SDS011;64451;45.574;14.224;2023-03-29T06:15:28;13.10;;;5.63;;
75814;SDS011;64451;45.574;14.224;2023-03-29T06:17:41;5.07;;;2.60;;
75814;SDS011;64451;45.574;14.224;2023-03-29T06:19:46;6.75;;;2.75;;
75814;SDS011;64451;45.574;14.224;2023-03-29T06:21:49;13.60;;;3.00;;
75814;SDS011;64451;45.574;14.224;2023-03-29T06:23:52;9.25;;;2.92;;
75814;SDS011;64451;45.574;14.224;2023-03-29T06:25:53;6.88;;;2.78;;
75814;SDS011;64451;45.574;14.224;2023-03-29T06:30:05;8.50;;;3.47;;
75814;SDS011;64451;45.574;14.224;2023-03-29T06:32:09;7.55;;;3.08;;
75814;SDS011;64451;45.574;14.224;2023-03-29T06:34:10;8.25;;;3.78;;
75814;SDS011;64451;45.574;14.224;2023-03-29T06:36:13;6.07;;;2.97;;
75814;SDS011;64451;45.574;14.224;2023-03-29T06:39:05;7.47;;;2.90;;
75814;SDS011;64451;45.574;14.224;2023-03-29T06:41:11;5.95;;;3.17;;
75814;SDS011;64451;45.574;14.224;2023-03-29T06:43:18;8.50;;;3.65;;
75814;SDS011;64451;45.574;14.224;2023-03-29T06:45:18;3.70;;;2.55;;
75814;SDS011;64451;45.574;14.224;2023-03-29T06:47:25;12.02;;;3.60;;
75814;SDS011;64451;45.574;14.224;2023-03-29T06:49:29;13.65;;;2.83;;
75814;SDS011;64451;45.574;14.224;2023-03-29T06:51:30;6.55;;;2.63;;
75814;SDS011;64451;45.574;14.224;2023-03-29T06:53:31;6.65;;;2.70;;
75814;SDS011;64451;45.574;14.224;2023-03-29T06:55:37;5.22;;;2.58;;
75814;SDS011;64451;45.574;14.224;2023-03-29T06:59:44;7.17;;;2.73;;
75814;SDS011;64451;45.574;14.224;2023-03-29T07:01:50;13.70;;;3.28;;
75814;SDS011;64451;45.574;14.224;2023-03-29T07:03:52;5.88;;;2.28;;
75814;SDS011;64451;45.574;14.224;2023-03-29T07:08:32;5.05;;;2.40;;
75814;SDS011;64451;45.574;14.224;2023-03-29T07:10:44;5.93;;;2.63;;
75814;SDS011;64451;45.574;14.224;2023-03-29T07:12:55;7.93;;;2.83;;
75814;SDS011;64451;45.574;14.224;2023-03-29T07:14:56;6.78;;;2.70;;
75814;SDS011;64451;45.574;14.224;2023-03-29T07:19:17;6.55;;;2.10;;
75814;SDS011;64451;45.574;14.224;2023-03-29T07:21:21;4.20;;;1.67;;
75814;SDS011;64451;45.574;14.224;2023-03-29T07:23:24;2.65;;;1.23;;
75814;SDS011;64451;45.574;14.224;2023-03-29T07:27:38;0.83;;;0.50;;
75814;SDS011;64451;45.574;14.224;2023-03-29T07:29:39;2.58;;;0.57;;
75814;SDS011;64451;45.574;14.224;2023-03-29T07:34:03;3.00;;;0.65;;
75814;SDS011;64451;45.574;14.224;2023-03-29T07:36:05;0.80;;;0.40;;
75814;SDS011;64451;45.574;14.224;2023-03-29T07:38:12;1.08;;;0.50;;
75814;SDS011;64451;45.574;14.224;2023-03-29T07:40:15;1.33;;;0.45;;
75814;SDS011;64451;45.574;14.224;2023-03-29T07:42:23;0.85;;;0.40;;
75814;SDS011;64451;45.574;14.224;2023-03-29T07:44:29;3.20;;;0.75;;
75814;SDS011;64451;45.574;14.224;2023-03-29T07:46:38;2.60;;;0.80;;
75814;SDS011;64451;45.574;14.224;2023-03-29T07:48:39;2.63;;;0.77;;
75814;SDS011;64451;45.574;14.224;2023-03-29T07:50:51;0.70;;;0.70;;
75814;SDS011;64451;45.574;14.224;2023-03-29T07:54:57;2.55;;;0.82;;
75814;SDS011;64451;45.574;14.224;2023-03-29T08:02:33;3.88;;;0.45;;
75814;SDS011;64451;45.574;14.224;2023-03-29T08:04:43;0.52;;;0.30;;
75814;SDS011;64451;45.574;14.224;2023-03-29T08:11:01;1.30;;;0.30;;
75814;SDS011;64451;45.574;14.224;2023-03-29T08:13:11;3.55;;;0.47;;
75814;SDS011;64451;45.574;14.224;2023-03-29T08:15:15;0.93;;;0.50;;
75814;SDS011;64451;45.574;14.224;2023-03-29T08:17:16;1.38;;;0.60;;
75814;SDS011;64451;45.574;14.224;2023-03-29T08:19:16;1.75;;;0.50;;
75814;SDS011;64451;45.574;14.224;2023-03-29T08:21:35;0.95;;;0.57;;
75814;SDS011;64451;45.574;14.224;2023-03-29T08:23:45;1.35;;;0.50;;
75814;SDS011;64451;45.574;14.224;2023-03-29T08:25:51;0.40;;;0.40;;
75814;SDS011;64451;45.574;14.224;2023-03-29T08:27:54;0.45;;;0.40;;
75814;SDS011;64451;45.574;14.224;2023-03-29T08:29:57;1.67;;;0.68;;
75814;SDS011;64451;45.574;14.224;2023-03-29T08:36:22;1.17;;;0.60;;
75814;SDS011;64451;45.574;14.224;2023-03-29T08:40:28;0.90;;;0.40;;
75814;SDS011;64451;45.574;14.224;2023-03-29T08:58:42;1.33;;;0.40;;
75814;SDS011;64451;45.574;14.224;2023-03-29T09:33:11;1.50;;;0.70;;
75814;SDS011;64451;45.574;14.224;2023-03-29T09:37:51;0.75;;;0.45;;
75814;SDS011;64451;45.574;14.224;2023-03-29T09:42:45;0.60;;;0.43;;
75814;SDS011;64451;45.574;14.224;2023-03-29T09:45:12;1.35;;;0.38;;
75814;SDS011;64451;45.574;14.224;2023-03-29T09:53:30;0.35;;;0.35;;
75814;SDS011;64451;45.574;14.224;2023-03-29T09:55:44;1.25;;;0.47;;
75814;SDS011;64451;45.574;14.224;2023-03-29T09:58:14;2.53;;;0.77;;
75814;SDS011;64451;45.574;14.224;2023-03-29T10:00:40;0.50;;;0.40;;
75814;SDS011;64451;45.574;14.224;2023-03-29T10:02:48;0.85;;;0.40;;
75814;SDS011;64451;45.574;14.224;2023-03-29T10:05:06;0.65;;;0.40;;
75814;SDS011;64451;45.574;14.224;2023-03-29T10:11:36;1.90;;;0.40;;
75814;SDS011;64451;45.574;14.224;2023-03-29T10:22:10;1.30;;;0.57;;
75814;SDS011;64451;45.574;14.224;2023-03-29T10:30:38;0.50;;;0.50;;
75814;SDS011;64451;45.574;14.224;2023-03-29T10:35:28;2.95;;;0.43;;
75814;SDS011;64451;45.574;14.224;2023-03-29T10:37:54;1.02;;;0.38;;
75814;SDS011;64451;45.574;14.224;2023-03-29T10:49:55;3.15;;;0.70;;
75814;SDS011;64451;45.574;14.224;2023-03-29T10:52:48;4.20;;;0.88;;
75814;SDS011;64451;45.574;14.224;2023-03-29T11:23:16;0.75;;;0.40;;
75814;SDS011;64451;45.574;14.224;2023-03-29T11:28:44;1.50;;;0.52;;
75814;SDS011;64451;45.574;14.224;2023-03-29T11:31:41;2.17;;;0.73;;
75814;SDS011;64451;45.574;14.224;2023-03-29T11:42:00;1.73;;;0.47;;
75814;SDS011;64451;45.574;14.224;2023-03-29T11:44:43;1.23;;;0.50;;
75814;SDS011;64451;45.574;14.224;2023-03-29T11:56:06;2.70;;;0.52;;
75814;SDS011;64451;45.574;14.224;2023-03-29T11:58:40;1.23;;;0.50;;
75814;SDS011;64451;45.574;14.224;2023-03-29T12:06:30;1.50;;;0.57;;
75814;SDS011;64451;45.574;14.224;2023-03-29T12:18:55;0.68;;;0.60;;
75814;SDS011;64451;45.574;14.224;2023-03-29T12:45:05;1.98;;;0.70;;
75814;SDS011;64451;45.574;14.224;2023-03-29T12:51:49;0.73;;;0.47;;
75814;SDS011;64451;45.574;14.224;2023-03-29T13:02:41;3.47;;;1.40;;
75814;SDS011;64451;45.574;14.224;2023-03-29T13:16:11;3.33;;;0.73;;
75814;SDS011;64451;45.574;14.224;2023-03-29T13:31:31;6.22;;;2.40;;
75814;SDS011;64451;45.574;14.224;2023-03-29T13:34:20;1.88;;;0.80;;
75814;SDS011;64451;45.574;14.224;2023-03-29T13:50:50;2.53;;;0.65;;
75814;SDS011;64451;45.574;14.224;2023-03-29T14:06:02;2.53;;;0.73;;
75814;SDS011;64451;45.574;14.224;2023-03-29T14:10:26;0.52;;;0.40;;
75814;SDS011;64451;45.574;14.224;2023-03-29T14:12:57;1.42;;;0.68;;
75814;SDS011;64451;45.574;14.224;2023-03-29T14:15:16;1.00;;;0.55;;
75814;SDS011;64451;45.574;14.224;2023-03-29T14:24:38;3.25;;;0.77;;
75814;SDS011;64451;45.574;14.224;2023-03-29T14:27:10;2.92;;;0.90;;
75814;SDS011;64451;45.574;14.224;2023-03-29T14:29:16;8.13;;;1.40;;
75814;SDS011;64451;45.574;14.224;2023-03-29T14:31:33;1.40;;;0.80;;
75814;SDS011;64451;45.574;14.224;2023-03-29T14:34:27;1.38;;;0.90;;
75814;SDS011;64451;45.574;14.224;2023-03-29T14:36:40;2.35;;;0.70;;
75814;SDS011;64451;45.574;14.224;2023-03-29T14:41:04;1.50;;;0.63;;
75814;SDS011;64451;45.574;14.224;2023-03-29T14:45:36;3.83;;;1.02;;
75814;SDS011;64451;45.574;14.224;2023-03-29T14:47:55;6.25;;;1.10;;
75814;SDS011;64451;45.574;14.224;2023-03-29T14:52:08;5.10;;;1.13;;
75814;SDS011;64451;45.574;14.224;2023-03-29T14:54:28;1.98;;;0.70;;
75814;SDS011;64451;45.574;14.224;2023-03-29T14:57:11;3.53;;;1.08;;
75814;SDS011;64451;45.574;14.224;2023-03-29T14:59:54;3.40;;;0.95;;
75814;SDS011;64451;45.574;14.224;2023-03-29T15:04:08;4.97;;;1.67;;
75814;SDS011;64451;45.574;14.224;2023-03-29T15:08:57;3.03;;;0.70;;
75814;SDS011;64451;45.574;14.224;2023-03-29T15:11:31;3.58;;;1.10;;
75814;SDS011;64451;45.574;14.224;2023-03-29T15:13:39;3.08;;;0.90;;
75814;SDS011;64451;45.574;14.224;2023-03-29T15:15:57;2.85;;;0.98;;
75814;SDS011;64451;45.574;14.224;2023-03-29T15:18:26;3.05;;;1.10;;
75814;SDS011;64451;45.574;14.224;2023-03-29T15:24:16;6.28;;;1.40;;
75814;SDS011;64451;45.574;14.224;2023-03-29T15:26:34;2.72;;;1.42;;
75814;SDS011;64451;45.574;14.224;2023-03-29T15:31:09;4.20;;;1.40;;
75814;SDS011;64451;45.574;14.224;2023-03-29T16:12:06;4.17;;;1.83;;
75814;SDS011;64451;45.574;14.224;2023-03-29T16:18:55;5.45;;;1.98;;
75814;SDS011;64451;45.574;14.224;2023-03-29T16:20:55;3.95;;;1.70;;
75814;SDS011;64451;45.574;14.224;2023-03-29T16:23:06;3.95;;;1.75;;
75814;SDS011;64451;45.574;14.224;2023-03-29T16:25:28;4.20;;;1.58;;
75814;SDS011;64451;45.574;14.224;2023-03-29T16:27:36;2.22;;;1.27;;
75814;SDS011;64451;45.574;14.224;2023-03-29T16:29:37;5.65;;;1.60;;
75814;SDS011;64451;45.574;14.224;2023-03-29T16:31:40;3.90;;;1.65;;
75814;SDS011;64451;45.574;14.224;2023-03-29T16:33:47;5.55;;;1.92;;
75814;SDS011;64451;45.574;14.224;2023-03-29T16:36:05;5.93;;;1.48;;
75814;SDS011;64451;45.574;14.224;2023-03-29T16:38:15;5.28;;;1.73;;
75814;SDS011;64451;45.574;14.224;2023-03-29T16:42:40;3.70;;;1.40;;
75814;SDS011;64451;45.574;14.224;2023-03-29T16:44:43;3.55;;;1.70;;
75814;SDS011;64451;45.574;14.224;2023-03-29T16:47:17;2.72;;;1.45;;
75814;SDS011;64451;45.574;14.224;2023-03-29T16:54:19;4.60;;;1.55;;
75814;SDS011;64451;45.574;14.224;2023-03-29T16:56:22;3.80;;;1.27;;
75814;SDS011;64451;45.574;14.224;2023-03-29T16:58:26;3.55;;;1.60;;
75814;SDS011;64451;45.574;14.224;2023-03-29T17:04:36;5.60;;;1.40;;
75814;SDS011;64451;45.574;14.224;2023-03-29T17:06:42;2.90;;;1.30;;
75814;SDS011;64451;45.574;14.224;2023-03-29T17:09:04;4.28;;;1.67;;
75814;SDS011;64451;45.574;14.224;2023-03-29T17:11:05;2.47;;;1.40;;
75814;SDS011;64451;45.574;14.224;2023-03-29T17:21:27;7.68;;;1.90;;
75814;SDS011;64451;45.574;14.224;2023-03-29T17:23:28;1.85;;;1.02;;
75814;SDS011;64451;45.574;14.224;2023-03-29T17:25:37;4.43;;;1.55;;
75814;SDS011;64451;45.574;14.224;2023-03-29T17:27:50;4.13;;;1.67;;
75814;SDS011;64451;45.574;14.224;2023-03-29T17:29:51;3.25;;;1.40;;
75814;SDS011;64451;45.574;14.224;2023-03-29T17:31:55;1.45;;;1.20;;
75814;SDS011;64451;45.574;14.224;2023-03-29T17:33:58;9.77;;;1.60;;
75814;SDS011;64451;45.574;14.224;2023-03-29T17:38:15;3.60;;;1.58;;
75814;SDS011;64451;45.574;14.224;2023-03-29T17:40:15;7.43;;;1.33;;
75814;SDS011;64451;45.574;14.224;2023-03-29T17:53:07;1.70;;;1.10;;
75814;SDS011;64451;45.574;14.224;2023-03-29T17:55:12;4.32;;;1.30;;
75814;SDS011;64451;45.574;14.224;2023-03-29T17:57:15;3.75;;;1.50;;
75814;SDS011;64451;45.574;14.224;2023-03-29T17:59:15;4.13;;;1.55;;
75814;SDS011;64451;45.574;14.224;2023-03-29T18:12:03;4.03;;;1.40;;
75814;SDS011;64451;45.574;14.224;2023-03-29T18:14:06;4.43;;;1.30;;
75814;SDS011;64451;45.574;14.224;2023-03-29T18:16:22;4.43;;;1.40;;
75814;SDS011;64451;45.574;14.224;2023-03-29T18:20:37;4.85;;;2.03;;
75814;SDS011;64451;45.574;14.224;2023-03-29T18:22:40;4.43;;;1.77;;
75814;SDS011;64451;45.574;14.224;2023-03-29T18:24:42;5.50;;;1.48;;
75814;SDS011;64451;45.574;14.224;2023-03-29T18:29:02;4.65;;;2.38;;
75814;SDS011;64451;45.574;14.224;2023-03-29T18:31:03;8.30;;;3.28;;
75814;SDS011;64451;45.574;14.224;2023-03-29T18:33:13;9.13;;;2.95;;
75814;SDS011;64451;45.574;14.224;2023-03-29T18:35:13;9.85;;;2.70;;
75814;SDS011;64451;45.574;14.224;2023-03-29T18:37:32;12.93;;;2.53;;
75814;SDS011;64451;45.574;14.224;2023-03-29T18:39:32;6.85;;;3.08;;
75814;SDS011;64451;45.574;14.224;2023-03-29T18:45:43;12.98;;;4.47;;
75814;SDS011;64451;45.574;14.224;2023-03-29T18:47:44;15.80;;;5.20;;
75814;SDS011;64451;45.574;14.224;2023-03-29T18:49:50;12.30;;;4.97;;
75814;SDS011;64451;45.574;14.224;2023-03-29T18:51:51;10.02;;;4.28;;
75814;SDS011;64451;45.574;14.224;2023-03-29T18:53:59;14.77;;;5.17;;
75814;SDS011;64451;45.574;14.224;2023-03-29T18:56:03;9.73;;;3.95;;
75814;SDS011;64451;45.574;14.224;2023-03-29T18:58:05;12.85;;;3.92;;
75814;SDS011;64451;45.574;14.224;2023-03-29T19:00:11;10.98;;;3.78;;
75814;SDS011;64451;45.574;14.224;2023-03-29T19:02:11;9.35;;;3.42;;
75814;SDS011;64451;45.574;14.224;2023-03-29T19:04:18;10.13;;;3.22;;
75814;SDS011;64451;45.574;14.224;2023-03-29T19:06:19;10.40;;;2.72;;
75814;SDS011;64451;45.574;14.224;2023-03-29T19:08:34;8.38;;;2.92;;
75814;SDS011;64451;45.574;14.224;2023-03-29T19:13:17;8.35;;;3.03;;
75814;SDS011;64451;45.574;14.224;2023-03-29T19:15:17;3.22;;;1.75;;
75814;SDS011;64451;45.574;14.224;2023-03-29T19:17:20;4.63;;;2.00;;
75814;SDS011;64451;45.574;14.224;2023-03-29T19:19:24;6.80;;;2.58;;
75814;SDS011;64451;45.574;14.224;2023-03-29T19:21:31;3.95;;;1.70;;
75814;SDS011;64451;45.574;14.224;2023-03-29T19:23:32;5.05;;;1.83;;
75814;SDS011;64451;45.574;14.224;2023-03-29T19:27:51;6.05;;;1.58;;
75814;SDS011;64451;45.574;14.224;2023-03-29T19:31:58;3.10;;;1.48;;
75814;SDS011;64451;45.574;14.224;2023-03-29T19:34:01;5.55;;;1.70;;
75814;SDS011;64451;45.574;14.224;2023-03-29T19:38:59;4.10;;;1.95;;
75814;SDS011;64451;45.574;14.224;2023-03-29T19:41:05;4.03;;;1.63;;
75814;SDS011;64451;45.574;14.224;2023-03-29T19:43:41;6.57;;;2.28;;
75814;SDS011;64451;45.574;14.224;2023-03-29T19:45:48;5.53;;;2.00;;
75814;SDS011;64451;45.574;14.224;2023-03-29T19:56:23;6.47;;;2.50;;
75814;SDS011;64451;45.574;14.224;2023-03-29T19:58:25;4.72;;;2.00;;
75814;SDS011;64451;45.574;14.224;2023-03-29T20:00:28;4.93;;;1.60;;
75814;SDS011;64451;45.574;14.224;2023-03-29T20:02:34;5.93;;;2.05;;
75814;SDS011;64451;45.574;14.224;2023-03-29T20:04:50;4.30;;;2.08;;
75814;SDS011;64451;45.574;14.224;2023-03-29T20:09:06;3.63;;;1.73;;
75814;SDS011;64451;45.574;14.224;2023-03-29T20:11:11;5.88;;;2.40;;
75814;SDS011;64451;45.574;14.224;2023-03-29T20:13:13;6.82;;;2.85;;
75814;SDS011;64451;45.574;14.224;2023-03-29T20:17:44;13.02;;;2.67;;
75814;SDS011;64451;45.574;14.224;2023-03-29T20:22:21;4.53;;;1.70;;
75814;SDS011;64451;45.574;14.224;2023-03-29T20:31:16;8.05;;;2.15;;
75814;SDS011;64451;45.574;14.224;2023-03-29T20:33:20;6.13;;;2.58;;
75814;SDS011;64451;45.574;14.224;2023-03-29T20:35:38;3.17;;;1.85;;
75814;SDS011;64451;45.574;14.224;2023-03-29T20:40:10;2.95;;;1.77;;
75814;SDS011;64451;45.574;14.224;2023-03-29T20:42:12;6.10;;;1.58;;
75814;SDS011;64451;45.574;14.224;2023-03-29T20:44:18;4.25;;;1.77;;
75814;SDS011;64451;45.574;14.224;2023-03-29T20:46:39;4.97;;;1.70;;
75814;SDS011;64451;45.574;14.224;2023-03-29T20:49:03;6.03;;;1.73;;
75814;SDS011;64451;45.574;14.224;2023-03-29T20:55:33;2.55;;;1.40;;
75814;SDS011;64451;45.574;14.224;2023-03-29T20:57:39;5.80;;;1.77;;
75814;SDS011;64451;45.574;14.224;2023-03-29T20:59:53;2.95;;;1.48;;